logo
Search for airport 
image banner adimage banner adimage banner ad
image banner ad

LKKI - Krnov - Nemocnice

Located in Krnov, Czech Republic

ICAO - , IATA -

Data provided by Airmate  

General information

Coordinates: N50°5'49" E17°41'7"
Elevation is 1046 feet MSL.
 
View others Airports in Moravian-Silesian Region

Operational data

Special qualification required
Current time UTC:
Current local time:
Weather at : LKMT - Ostrava/Mosnov ( 54 km )
METAR: LKMT 200600Z 20011KT 9999 -RA SCT009 BKN016 05/03 Q1006 NOSIG
View NOTAMs / SUP AIP / TFR affecting this airport [VIEW]
Communications frequencies: [VIEW]

Runways:

Airport contact information

Address: Krnov Czech Republic

Satellite view of LKKI